sensor_id;sensor_type;location;lat;lon;timestamp;pressure;altitude;pressure_sealevel;temperature;humidity
80202;BME280;69521;54.454;9.928;2024-03-23T00:53:47;100623.56;;;4.56;92.81
80202;BME280;69521;54.454;9.928;2024-03-23T00:56:12;100618.88;;;4.59;92.90
80202;BME280;69521;54.454;9.928;2024-03-23T00:58:38;100606.97;;;4.52;93.57
80202;BME280;69521;54.454;9.928;2024-03-23T01:01:03;100608.75;;;4.52;92.89
80202;BME280;69521;54.454;9.928;2024-03-23T01:03:29;100604.94;;;4.56;92.81
80202;BME280;69521;54.454;9.928;2024-03-23T01:05:59;100608.34;;;4.58;92.58
80202;BME280;69521;54.454;9.928;2024-03-23T01:08:24;100607.59;;;4.56;92.59
80202;BME280;69521;54.454;9.928;2024-03-23T01:10:56;100598.84;;;4.54;92.60
80202;BME280;69521;54.454;9.928;2024-03-23T01:13:22;100582.44;;;4.47;92.84
80202;BME280;69521;54.454;9.928;2024-03-23T01:15:49;100582.88;;;4.41;92.93
80202;BME280;69521;54.454;9.928;2024-03-23T01:18:14;100591.41;;;4.46;92.96
80202;BME280;69521;54.454;9.928;2024-03-23T01:20:39;100591.09;;;4.51;92.94
80202;BME280;69521;54.454;9.928;2024-03-23T01:23:05;100583.63;;;4.43;93.46
80202;BME280;69521;54.454;9.928;2024-03-23T01:25:30;100574.25;;;4.37;93.44
80202;BME280;69521;54.454;9.928;2024-03-23T01:27:55;100576.34;;;4.32;93.14
80202;BME280;69521;54.454;9.928;2024-03-23T01:30:21;100586.38;;;4.29;93.38
80202;BME280;69521;54.454;9.928;2024-03-23T01:32:46;100585.63;;;4.27;93.82
80202;BME280;69521;54.454;9.928;2024-03-23T01:35:12;100571.66;;;4.23;94.25
80202;BME280;69521;54.454;9.928;2024-03-23T01:37:37;100568.16;;;4.23;94.31
80202;BME280;69521;54.454;9.928;2024-03-23T01:40:03;100570.28;;;4.18;94.28
80202;BME280;69521;54.454;9.928;2024-03-23T01:42:29;100566.88;;;4.15;94.51
80202;BME280;69521;54.454;9.928;2024-03-23T01:44:54;100564.00;;;4.19;94.30
80202;BME280;69521;54.454;9.928;2024-03-23T01:47:20;100561.13;;;4.22;94.34
80202;BME280;69521;54.454;9.928;2024-03-23T01:49:45;100554.41;;;4.16;94.29
80202;BME280;69521;54.454;9.928;2024-03-23T01:52:10;100559.44;;;4.21;94.19
80202;BME280;69521;54.454;9.928;2024-03-23T01:54:36;100557.41;;;4.11;94.60
80202;BME280;69521;54.454;9.928;2024-03-23T01:57:02;100557.59;;;4.08;94.38
80202;BME280;69521;54.454;9.928;2024-03-23T01:59:27;100551.00;;;4.01;94.34
80202;BME280;69521;54.454;9.928;2024-03-23T02:01:52;100552.41;;;4.07;95.04
80202;BME280;69521;54.454;9.928;2024-03-23T02:04:18;100547.59;;;3.99;94.75
80202;BME280;69521;54.454;9.928;2024-03-23T02:06:43;100549.50;;;3.97;94.73
80202;BME280;69521;54.454;9.928;2024-03-23T02:09:08;100555.78;;;3.96;95.21
80202;BME280;69521;54.454;9.928;2024-03-23T02:11:34;100538.97;;;3.96;95.35
80202;BME280;69521;54.454;9.928;2024-03-23T02:13:59;100530.44;;;3.91;95.29
80202;BME280;69521;54.454;9.928;2024-03-23T02:16:25;100531.31;;;3.91;95.63
80202;BME280;69521;54.454;9.928;2024-03-23T02:18:50;100526.09;;;3.90;95.64
80202;BME280;69521;54.454;9.928;2024-03-23T02:21:15;100526.84;;;3.92;95.75
80202;BME280;69521;54.454;9.928;2024-03-23T02:23:41;100511.94;;;3.89;95.47
80202;BME280;69521;54.454;9.928;2024-03-23T02:26:06;100505.13;;;3.85;96.00
80202;BME280;69521;54.454;9.928;2024-03-23T02:28:32;100508.31;;;3.90;95.99
80202;BME280;69521;54.454;9.928;2024-03-23T02:30:57;100506.59;;;3.89;95.79
80202;BME280;69521;54.454;9.928;2024-03-23T02:33:23;100511.41;;;3.84;96.07
80202;BME280;69521;54.454;9.928;2024-03-23T02:35:49;100499.78;;;3.85;96.29
80202;BME280;69521;54.454;9.928;2024-03-23T02:38:14;100490.75;;;3.88;96.38
80202;BME280;69521;54.454;9.928;2024-03-23T02:40:39;100498.94;;;3.97;96.53
80202;BME280;69521;54.454;9.928;2024-03-23T02:43:05;100489.91;;;4.00;95.99
80202;BME280;69521;54.454;9.928;2024-03-23T02:45:31;100483.41;;;4.04;95.87
80202;BME280;69521;54.454;9.928;2024-03-23T02:47:56;100480.41;;;4.08;95.78
80202;BME280;69521;54.454;9.928;2024-03-23T02:50:22;100478.50;;;4.10;95.71
80202;BME280;69521;54.454;9.928;2024-03-23T02:52:48;100482.13;;;4.09;95.01
80202;BME280;69521;54.454;9.928;2024-03-23T02:55:13;100473.38;;;4.07;95.76
80202;BME280;69521;54.454;9.928;2024-03-23T02:57:39;100471.25;;;4.00;95.62
80202;BME280;69521;54.454;9.928;2024-03-23T03:00:05;100474.88;;;3.99;95.59
80202;BME280;69521;54.454;9.928;2024-03-23T03:02:31;100470.63;;;3.96;95.00
80202;BME280;69521;54.454;9.928;2024-03-23T03:04:56;100466.81;;;3.88;95.56
80202;BME280;69521;54.454;9.928;2024-03-23T03:07:22;100466.91;;;3.86;96.17
80202;BME280;69521;54.454;9.928;2024-03-23T03:09:47;100461.81;;;3.83;96.19
80202;BME280;69521;54.454;9.928;2024-03-23T03:12:13;100463.28;;;3.87;96.33
80202;BME280;69521;54.454;9.928;2024-03-23T03:14:38;100463.06;;;3.90;95.55
80202;BME280;69521;54.454;9.928;2024-03-23T03:17:04;100459.13;;;3.83;95.52
80202;BME280;69521;54.454;9.928;2024-03-23T03:19:29;100451.38;;;3.80;95.80
80202;BME280;69521;54.454;9.928;2024-03-23T03:21:55;100445.09;;;3.81;96.16
80202;BME280;69521;54.454;9.928;2024-03-23T03:24:21;100440.19;;;3.75;95.80
80202;BME280;69521;54.454;9.928;2024-03-23T03:26:46;100440.84;;;3.66;96.17
80202;BME280;69521;54.454;9.928;2024-03-23T03:29:11;100443.81;;;3.61;96.08
80202;BME280;69521;54.454;9.928;2024-03-23T03:31:38;100429.03;;;3.57;96.33
80202;BME280;69521;54.454;9.928;2024-03-23T03:34:03;100433.50;;;3.57;96.73
80202;BME280;69521;54.454;9.928;2024-03-23T03:36:29;100432.75;;;3.55;96.76
80202;BME280;69521;54.454;9.928;2024-03-23T03:38:54;100433.59;;;3.55;97.27
80202;BME280;69521;54.454;9.928;2024-03-23T03:41:19;100429.34;;;3.53;97.03
80202;BME280;69521;54.454;9.928;2024-03-23T03:43:45;100421.75;;;3.46;97.35
80202;BME280;69521;54.454;9.928;2024-03-23T03:46:11;100421.00;;;3.44;97.09
80202;BME280;69521;54.454;9.928;2024-03-23T03:48:36;100414.19;;;3.40;97.84
80202;BME280;69521;54.454;9.928;2024-03-23T03:51:02;100412.38;;;3.41;97.87
80202;BME280;69521;54.454;9.928;2024-03-23T03:53:28;100408.88;;;3.40;98.10
80202;BME280;69521;54.454;9.928;2024-03-23T03:55:53;100405.41;;;3.53;97.99
80202;BME280;69521;54.454;9.928;2024-03-23T03:58:18;100413.06;;;3.57;97.26
80202;BME280;69521;54.454;9.928;2024-03-23T04:00:44;100413.59;;;3.49;97.33
80202;BME280;69521;54.454;9.928;2024-03-23T04:03:09;100407.09;;;3.54;97.74
80202;BME280;69521;54.454;9.928;2024-03-23T04:05:34;100401.25;;;3.48;98.19
80202;BME280;69521;54.454;9.928;2024-03-23T04:08:00;100395.25;;;3.45;98.64
80202;BME280;69521;54.454;9.928;2024-03-23T04:10:25;100401.53;;;3.44;98.31
80202;BME280;69521;54.454;9.928;2024-03-23T04:12:51;100400.69;;;3.43;97.84
80202;BME280;69521;54.454;9.928;2024-03-23T04:15:17;100393.66;;;3.42;98.25
80202;BME280;69521;54.454;9.928;2024-03-23T04:17:42;100387.50;;;3.42;98.44
80202;BME280;69521;54.454;9.928;2024-03-23T04:20:08;100388.56;;;3.39;98.85
80202;BME280;69521;54.454;9.928;2024-03-23T04:22:39;100394.41;;;3.32;98.65
80202;BME280;69521;54.454;9.928;2024-03-23T04:25:04;100388.44;;;3.28;99.42
80202;BME280;69521;54.454;9.928;2024-03-23T04:27:34;100388.34;;;3.30;99.37
80202;BME280;69521;54.454;9.928;2024-03-23T04:30:00;100389.19;;;3.30;99.93
80202;BME280;69521;54.454;9.928;2024-03-23T04:32:27;100376.84;;;3.29;99.83
80202;BME280;69521;54.454;9.928;2024-03-23T04:34:52;100385.78;;;3.28;99.51
80202;BME280;69521;54.454;9.928;2024-03-23T04:37:17;100378.56;;;3.30;100.00
80202;BME280;69521;54.454;9.928;2024-03-23T04:39:43;100382.91;;;3.31;100.00
80202;BME280;69521;54.454;9.928;2024-03-23T04:42:08;100376.00;;;3.29;100.00
80202;BME280;69521;54.454;9.928;2024-03-23T04:44:34;100377.91;;;3.27;100.00
80202;BME280;69521;54.454;9.928;2024-03-23T04:47:00;100376.97;;;3.28;100.00
80202;BME280;69521;54.454;9.928;2024-03-23T04:49:25;100361.00;;;3.28;100.00
80202;BME280;69521;54.454;9.928;2024-03-23T04:51:51;100361.97;;;3.27;100.00
80202;BME280;69521;54.454;9.928;2024-03-23T04:54:16;100358.47;;;3.26;100.00
80202;BME280;69521;54.454;9.928;2024-03-23T04:56:41;100363.56;;;3.29;100.00
80202;BME280;69521;54.454;9.928;2024-03-23T04:59:07;100359.31;;;3.27;100.00
80202;BME280;69521;54.454;9.928;2024-03-23T05:01:32;100364.09;;;3.34;100.00
80202;BME280;69521;54.454;9.928;2024-03-23T05:03:58;100366.97;;;3.31;100.00
80202;BME280;69521;54.454;9.928;2024-03-23T05:06:24;100371.22;;;3.34;100.00
80202;BME280;69521;54.454;9.928;2024-03-23T05:08:50;100368.47;;;3.35;100.00
80202;BME280;69521;54.454;9.928;2024-03-23T05:11:15;100360.28;;;3.38;100.00
80202;BME280;69521;54.454;9.928;2024-03-23T05:13:41;100350.47;;;3.39;100.00
80202;BME280;69521;54.454;9.928;2024-03-23T05:16:06;100353.38;;;3.48;100.00
80202;BME280;69521;54.454;9.928;2024-03-23T05:18:32;100358.03;;;3.45;100.00
80202;BME280;69521;54.454;9.928;2024-03-23T05:20:58;100351.22;;;3.41;100.00
80202;BME280;69521;54.454;9.928;2024-03-23T05:23:24;100352.63;;;3.34;100.00
80202;BME280;69521;54.454;9.928;2024-03-23T05:25:50;100350.59;;;3.37;100.00
80202;BME280;69521;54.454;9.928;2024-03-23T05:28:17;100346.34;;;3.35;100.00
80202;BME280;69521;54.454;9.928;2024-03-23T05:30:42;100343.56;;;3.36;100.00
80202;BME280;69521;54.454;9.928;2024-03-23T05:33:07;100347.81;;;3.39;100.00
80202;BME280;69521;54.454;9.928;2024-03-23T05:35:33;100348.69;;;3.39;100.00
80202;BME280;69521;54.454;9.928;2024-03-23T05:37:58;100346.53;;;3.44;100.00
80202;BME280;69521;54.454;9.928;2024-03-23T05:40:26;100347.63;;;3.42;100.00
80202;BME280;69521;54.454;9.928;2024-03-23T05:42:51;100343.16;;;3.42;100.00
80202;BME280;69521;54.454;9.928;2024-03-23T05:45:21;100354.41;;;3.46;100.00
80202;BME280;69521;54.454;9.928;2024-03-23T05:47:47;100352.81;;;3.43;100.00
80202;BME280;69521;54.454;9.928;2024-03-23T05:50:13;100339.53;;;3.43;100.00
80202;BME280;69521;54.454;9.928;2024-03-23T05:52:39;100351.13;;;3.42;100.00
80202;BME280;69521;54.454;9.928;2024-03-23T05:55:07;100344.31;;;3.38;100.00
80202;BME280;69521;54.454;9.928;2024-03-23T05:57:33;100349.84;;;3.35;100.00
80202;BME280;69521;54.454;9.928;2024-03-23T05:59:58;100341.66;;;3.38;100.00
80202;BME280;69521;54.454;9.928;2024-03-23T06:02:24;100337.41;;;3.36;100.00
80202;BME280;69521;54.454;9.928;2024-03-23T06:04:49;100335.59;;;3.36;100.00
80202;BME280;69521;54.454;9.928;2024-03-23T06:07:14;100333.78;;;3.37;100.00
80202;BME280;69521;54.454;9.928;2024-03-23T06:09:40;100333.78;;;3.37;100.00
80202;BME280;69521;54.454;9.928;2024-03-23T06:12:06;100336.97;;;3.42;100.00
80202;BME280;69521;54.454;9.928;2024-03-23T06:14:31;100330.41;;;3.47;100.00
80202;BME280;69521;54.454;9.928;2024-03-23T06:16:58;100323.91;;;3.51;100.00
80202;BME280;69521;54.454;9.928;2024-03-23T06:19:23;100324.22;;;3.60;100.00
80202;BME280;69521;54.454;9.928;2024-03-23T06:21:49;100321.13;;;3.66;100.00
80202;BME280;69521;54.454;9.928;2024-03-23T06:24:14;100314.53;;;3.71;100.00
80202;BME280;69521;54.454;9.928;2024-03-23T06:26:39;100319.28;;;3.79;100.00
80202;BME280;69521;54.454;9.928;2024-03-23T06:29:04;100312.78;;;3.83;100.00
80202;BME280;69521;54.454;9.928;2024-03-23T06:31:30;100317.69;;;3.89;100.00
80202;BME280;69521;54.454;9.928;2024-03-23T06:33:56;100317.22;;;3.95;100.00
80202;BME280;69521;54.454;9.928;2024-03-23T06:36:21;100324.56;;;4.04;100.00
80202;BME280;69521;54.454;9.928;2024-03-23T06:38:46;100323.22;;;4.23;100.00
80202;BME280;69521;54.454;9.928;2024-03-23T06:41:12;100313.44;;;4.47;100.00
80202;BME280;69521;54.454;9.928;2024-03-23T06:43:37;100306.31;;;4.83;99.88
80202;BME280;69521;54.454;9.928;2024-03-23T06:46:03;100316.03;;;4.95;99.33
80202;BME280;69521;54.454;9.928;2024-03-23T06:48:29;100320.56;;;5.17;97.91
80202;BME280;69521;54.454;9.928;2024-03-23T06:50:56;100317.72;;;5.31;96.90
80202;BME280;69521;54.454;9.928;2024-03-23T06:53:21;100319.75;;;5.27;96.17
80202;BME280;69521;54.454;9.928;2024-03-23T06:55:50;100320.50;;;5.29;96.14
80202;BME280;69521;54.454;9.928;2024-03-23T06:58:16;100316.25;;;5.60;95.95
80202;BME280;69521;54.454;9.928;2024-03-23T07:00:42;100325.22;;;5.82;95.89
80202;BME280;69521;54.454;9.928;2024-03-23T07:03:07;100320.50;;;5.63;95.23
80202;BME280;69521;54.454;9.928;2024-03-23T07:05:32;100313.34;;;5.63;95.16
80202;BME280;69521;54.454;9.928;2024-03-23T07:07:58;100317.97;;;5.72;95.62
80202;BME280;69521;54.454;9.928;2024-03-23T07:10:23;100313.47;;;5.73;94.95
80202;BME280;69521;54.454;9.928;2024-03-23T07:12:49;100321.72;;;5.81;95.16
80202;BME280;69521;54.454;9.928;2024-03-23T07:15:14;100318.81;;;5.95;94.83
80202;BME280;69521;54.454;9.928;2024-03-23T07:17:39;100311.19;;;6.45;93.97
80202;BME280;69521;54.454;9.928;2024-03-23T07:20:05;100305.00;;;6.77;92.65
80202;BME280;69521;54.454;9.928;2024-03-23T07:22:30;100301.81;;;6.83;89.76
80202;BME280;69521;54.454;9.928;2024-03-23T07:24:56;100296.94;;;7.29;89.47
80202;BME280;69521;54.454;9.928;2024-03-23T07:27:22;100298.78;;;7.99;86.83
80202;BME280;69521;54.454;9.928;2024-03-23T07:29:49;100292.59;;;7.68;85.84
80202;BME280;69521;54.454;9.928;2024-03-23T07:32:14;100299.16;;;7.24;87.59
80202;BME280;69521;54.454;9.928;2024-03-23T07:34:39;100298.13;;;6.95;89.87
80202;BME280;69521;54.454;9.928;2024-03-23T07:37:05;100287.19;;;6.87;91.18
80202;BME280;69521;54.454;9.928;2024-03-23T07:39:30;100295.47;;;6.84;91.11
80202;BME280;69521;54.454;9.928;2024-03-23T07:41:58;100292.28;;;6.90;90.98
80202;BME280;69521;54.454;9.928;2024-03-23T07:44:23;100286.13;;;7.10;89.98
80202;BME280;69521;54.454;9.928;2024-03-23T07:46:48;100289.88;;;7.28;90.87
80202;BME280;69521;54.454;9.928;2024-03-23T07:49:14;100288.19;;;7.27;89.92
80202;BME280;69521;54.454;9.928;2024-03-23T07:51:39;100280.91;;;7.09;89.72
80202;BME280;69521;54.454;9.928;2024-03-23T07:54:05;100281.84;;;6.87;91.49
80202;BME280;69521;54.454;9.928;2024-03-23T07:56:31;100275.47;;;6.78;91.73
80202;BME280;69521;54.454;9.928;2024-03-23T07:58:57;100269.53;;;6.75;91.77
80202;BME280;69521;54.454;9.928;2024-03-23T08:01:22;100270.53;;;7.15;91.87
80202;BME280;69521;54.454;9.928;2024-03-23T08:03:49;100264.81;;;7.60;89.92
80202;BME280;69521;54.454;9.928;2024-03-23T08:06:16;100260.03;;;8.04;88.65
80202;BME280;69521;54.454;9.928;2024-03-23T08:08:44;100256.06;;;7.88;87.21
80202;BME280;69521;54.454;9.928;2024-03-23T08:11:10;100263.03;;;7.70;88.86
80202;BME280;69521;54.454;9.928;2024-03-23T08:13:38;100264.94;;;7.58;88.80
80202;BME280;69521;54.454;9.928;2024-03-23T08:16:03;100266.34;;;7.22;89.89
80202;BME280;69521;54.454;9.928;2024-03-23T08:18:30;100269.19;;;6.68;91.38
80202;BME280;69521;54.454;9.928;2024-03-23T08:20:59;100271.88;;;5.93;92.33
80202;BME280;69521;54.454;9.928;2024-03-23T08:23:25;100256.84;;;5.25;93.24
80202;BME280;69521;54.454;9.928;2024-03-23T08:25:52;100253.53;;;4.99;91.26
80202;BME280;69521;54.454;9.928;2024-03-23T08:28:17;100245.94;;;4.70;89.87
80202;BME280;69521;54.454;9.928;2024-03-23T08:30:42;100238.88;;;4.47;90.71
80202;BME280;69521;54.454;9.928;2024-03-23T08:33:08;100238.09;;;4.34;90.25
80202;BME280;69521;54.454;9.928;2024-03-23T08:35:33;100228.84;;;4.27;88.66
80202;BME280;69521;54.454;9.928;2024-03-23T08:37:59;100225.22;;;4.28;87.04
80202;BME280;69521;54.454;9.928;2024-03-23T08:40:25;100232.00;;;4.32;87.52
80202;BME280;69521;54.454;9.928;2024-03-23T08:42:50;100235.31;;;4.35;85.75
80202;BME280;69521;54.454;9.928;2024-03-23T08:45:15;100239.44;;;4.39;88.63
80202;BME280;69521;54.454;9.928;2024-03-23T08:47:41;100226.84;;;4.41;89.74
80202;BME280;69521;54.454;9.928;2024-03-23T08:50:06;100229.56;;;4.53;90.61
80202;BME280;69521;54.454;9.928;2024-03-23T08:52:32;100230.47;;;4.75;89.13
80202;BME280;69521;54.454;9.928;2024-03-23T08:54:57;100231.06;;;4.79;89.73
80202;BME280;69521;54.454;9.928;2024-03-23T08:57:23;100231.69;;;4.83;90.72
80202;BME280;69521;54.454;9.928;2024-03-23T08:59:48;100225.03;;;4.88;90.32
80202;BME280;69521;54.454;9.928;2024-03-23T09:02:14;100223.94;;;4.91;89.80
80202;BME280;69521;54.454;9.928;2024-03-23T09:04:40;100224.19;;;4.88;90.27
80202;BME280;69521;54.454;9.928;2024-03-23T09:07:05;100215.22;;;4.89;89.60
80202;BME280;69521;54.454;9.928;2024-03-23T09:09:30;100206.03;;;4.93;89.25
80202;BME280;69521;54.454;9.928;2024-03-23T09:11:56;100209.66;;;4.92;89.03
80202;BME280;69521;54.454;9.928;2024-03-23T09:14:22;100204.94;;;4.95;89.63
80202;BME280;69521;54.454;9.928;2024-03-23T09:16:49;100200.09;;;5.00;89.68
80202;BME280;69521;54.454;9.928;2024-03-23T09:19:16;100199.59;;;5.06;88.45
80202;BME280;69521;54.454;9.928;2024-03-23T09:21:42;100194.16;;;5.08;89.02
80202;BME280;69521;54.454;9.928;2024-03-23T09:24:07;100188.50;;;5.89;87.05
80202;BME280;69521;54.454;9.928;2024-03-23T09:26:33;100185.94;;;6.31;85.23
80202;BME280;69521;54.454;9.928;2024-03-23T09:28:58;100181.06;;;6.04;83.55
80202;BME280;69521;54.454;9.928;2024-03-23T09:31:23;100188.38;;;5.80;84.03
80202;BME280;69521;54.454;9.928;2024-03-23T09:33:48;100192.91;;;5.68;85.02
80202;BME280;69521;54.454;9.928;2024-03-23T09:36:14;100184.66;;;5.71;84.53
80202;BME280;69521;54.454;9.928;2024-03-23T09:38:41;100184.50;;;5.95;84.57
80202;BME280;69521;54.454;9.928;2024-03-23T09:41:09;100189.53;;;6.41;82.16
80202;BME280;69521;54.454;9.928;2024-03-23T09:43:35;100184.69;;;7.78;81.66
80202;BME280;69521;54.454;9.928;2024-03-23T09:46:02;100177.84;;;8.52;75.95
80202;BME280;69521;54.454;9.928;2024-03-23T09:48:28;100176.31;;;8.21;77.16
80202;BME280;69521;54.454;9.928;2024-03-23T09:50:53;100176.44;;;9.14;78.94
80202;BME280;69521;54.454;9.928;2024-03-23T09:53:18;100170.34;;;9.77;72.18
80202;BME280;69521;54.454;9.928;2024-03-23T09:55:44;100171.91;;;11.20;70.96
80202;BME280;69521;54.454;9.928;2024-03-23T09:58:15;100161.97;;;11.97;72.01
80202;BME280;69521;54.454;9.928;2024-03-23T10:00:40;100157.41;;;13.19;61.76
80202;BME280;69521;54.454;9.928;2024-03-23T10:03:06;100164.06;;;12.35;65.56
80202;BME280;69521;54.454;9.928;2024-03-23T10:05:32;100160.69;;;12.41;67.81
80202;BME280;69521;54.454;9.928;2024-03-23T10:08:17;100166.34;;;12.06;62.97
80202;BME280;69521;54.454;9.928;2024-03-23T10:10:44;100174.16;;;11.67;64.60
80202;BME280;69521;54.454;9.928;2024-03-23T10:13:10;100172.41;;;10.28;71.13
80202;BME280;69521;54.454;9.928;2024-03-23T10:15:36;100162.31;;;9.77;66.00
80202;BME280;69521;54.454;9.928;2024-03-23T10:18:18;100173.63;;;10.51;66.68
80202;BME280;69521;54.454;9.928;2024-03-23T10:20:51;100150.72;;;12.26;62.27
80202;BME280;69521;54.454;9.928;2024-03-23T10:23:17;100172.78;;;13.02;59.61
80202;BME280;69521;54.454;9.928;2024-03-23T10:25:43;100152.72;;;13.83;55.89
80202;BME280;69521;54.454;9.928;2024-03-23T10:28:08;100149.50;;;13.01;59.56
80202;BME280;69521;54.454;9.928;2024-03-23T10:30:35;100157.69;;;11.36;57.43
80202;BME280;69521;54.454;9.928;2024-03-23T10:33:10;100165.81;;;10.40;63.64
80202;BME280;69521;54.454;9.928;2024-03-23T10:35:36;100166.19;;;10.89;69.21
80202;BME280;69521;54.454;9.928;2024-03-23T10:38:04;100155.69;;;11.38;63.15
80202;BME280;69521;54.454;9.928;2024-03-23T10:40:30;100152.66;;;10.19;62.14
80202;BME280;69521;54.454;9.928;2024-03-23T10:42:57;100149.41;;;9.53;68.54
80202;BME280;69521;54.454;9.928;2024-03-23T10:45:23;100146.97;;;10.84;62.56
80202;BME280;69521;54.454;9.928;2024-03-23T10:47:48;100147.69;;;12.53;59.21
80202;BME280;69521;54.454;9.928;2024-03-23T10:50:14;100136.03;;;13.49;56.54
80202;BME280;69521;54.454;9.928;2024-03-23T10:52:41;100143.41;;;12.91;58.30
80202;BME280;69521;54.454;9.928;2024-03-23T10:55:10;100135.56;;;12.41;59.16
80202;BME280;69521;54.454;9.928;2024-03-23T10:57:47;100134.44;;;11.77;58.36
80202;BME280;69521;54.454;9.928;2024-03-23T11:00:13;100140.69;;;13.24;57.25
80202;BME280;69521;54.454;9.928;2024-03-23T11:02:39;100138.00;;;14.40;56.09
80202;BME280;69521;54.454;9.928;2024-03-23T11:07:52;100130.13;;;12.00;58.17
80202;BME280;69521;54.454;9.928;2024-03-23T11:10:26;100141.50;;;9.51;62.07
80202;BME280;69521;54.454;9.928;2024-03-23T11:12:53;100152.31;;;8.58;66.96
80202;BME280;69521;54.454;9.928;2024-03-23T11:15:20;100154.00;;;7.91;68.20
80202;BME280;69521;54.454;9.928;2024-03-23T11:18:21;100168.34;;;7.21;71.26
80202;BME280;69521;54.454;9.928;2024-03-23T11:20:46;100171.72;;;7.23;74.79
80202;BME280;69521;54.454;9.928;2024-03-23T11:23:27;100173.66;;;7.12;70.40
80202;BME280;69521;54.454;9.928;2024-03-23T11:25:52;100167.31;;;6.41;73.17
80202;BME280;69521;54.454;9.928;2024-03-23T11:28:18;100178.31;;;6.26;75.37
80202;BME280;69521;54.454;9.928;2024-03-23T11:30:43;100173.88;;;6.16;76.65
80202;BME280;69521;54.454;9.928;2024-03-23T11:33:09;100171.34;;;6.35;78.45
80202;BME280;69521;54.454;9.928;2024-03-23T11:35:37;100175.47;;;6.60;77.24
80202;BME280;69521;54.454;9.928;2024-03-23T11:40:36;100173.44;;;6.94;76.70
80202;BME280;69521;54.454;9.928;2024-03-23T11:43:03;100167.28;;;7.03;73.58
80202;BME280;69521;54.454;9.928;2024-03-23T11:45:34;100160.75;;;7.26;74.40
80202;BME280;69521;54.454;9.928;2024-03-23T11:48:04;100159.03;;;7.75;73.09
80202;BME280;69521;54.454;9.928;2024-03-23T11:50:30;100148.00;;;9.58;68.96
80202;BME280;69521;54.454;9.928;2024-03-23T11:53:14;100128.84;;;11.70;62.14
80202;BME280;69521;54.454;9.928;2024-03-23T11:55:47;100137.16;;;13.07;59.24
80202;BME280;69521;54.454;9.928;2024-03-23T11:58:13;100129.84;;;13.32;55.37
80202;BME280;69521;54.454;9.928;2024-03-23T12:00:39;100128.72;;;14.34;55.50
80202;BME280;69521;54.454;9.928;2024-03-23T12:03:05;100133.84;;;14.75;54.55
80202;BME280;69521;54.454;9.928;2024-03-23T12:05:32;100121.56;;;12.54;53.81
80202;BME280;69521;54.454;9.928;2024-03-23T12:08:16;100121.19;;;11.92;60.85
80202;BME280;69521;54.454;9.928;2024-03-23T12:10:48;100123.53;;;10.15;64.98
80202;BME280;69521;54.454;9.928;2024-03-23T12:13:17;100124.69;;;9.32;65.82
80202;BME280;69521;54.454;9.928;2024-03-23T12:15:44;100118.41;;;8.67;69.90
80202;BME280;69521;54.454;9.928;2024-03-23T12:18:10;100129.00;;;9.70;70.81
80202;BME280;69521;54.454;9.928;2024-03-23T12:20:36;100117.22;;;11.62;62.94
80202;BME280;69521;54.454;9.928;2024-03-23T12:23:12;100112.97;;;12.42;55.51
80202;BME280;69521;54.454;9.928;2024-03-23T12:25:39;100112.38;;;11.73;55.61
80202;BME280;69521;54.454;9.928;2024-03-23T12:28:05;100108.66;;;11.24;53.01
80202;BME280;69521;54.454;9.928;2024-03-23T12:30:35;100119.56;;;12.15;53.16
80202;BME280;69521;54.454;9.928;2024-03-23T12:33:00;100107.38;;;12.11;51.83
80202;BME280;69521;54.454;9.928;2024-03-23T12:35:25;100123.38;;;11.38;56.39
80202;BME280;69521;54.454;9.928;2024-03-23T12:37:51;100109.66;;;11.23;54.04
80202;BME280;69521;54.454;9.928;2024-03-23T12:40:16;100113.28;;;9.47;56.59
80202;BME280;69521;54.454;9.928;2024-03-23T12:42:41;100120.59;;;9.00;60.34
80202;BME280;69521;54.454;9.928;2024-03-23T12:45:07;100109.03;;;9.54;60.15
80202;BME280;69521;54.454;9.928;2024-03-23T12:47:33;100113.31;;;10.80;62.05
80202;BME280;69521;54.454;9.928;2024-03-23T12:49:58;100107.59;;;11.51;55.55
80202;BME280;69521;54.454;9.928;2024-03-23T12:52:23;100111.44;;;11.06;58.90
80202;BME280;69521;54.454;9.928;2024-03-23T12:54:56;100114.19;;;11.23;59.46
80202;BME280;69521;54.454;9.928;2024-03-23T12:57:25;100101.59;;;11.73;56.44
80202;BME280;69521;54.454;9.928;2024-03-23T12:59:52;100107.88;;;11.98;54.61
80202;BME280;69521;54.454;9.928;2024-03-23T13:02:20;100109.38;;;12.82;52.50
80202;BME280;69521;54.454;9.928;2024-03-23T13:04:49;100104.25;;;12.95;54.56
80202;BME280;69521;54.454;9.928;2024-03-23T13:07:14;100103.72;;;13.55;50.18
80202;BME280;69521;54.454;9.928;2024-03-23T13:09:40;100113.31;;;13.97;49.98
80202;BME280;69521;54.454;9.928;2024-03-23T13:12:05;100100.63;;;12.72;51.69
80202;BME280;69521;54.454;9.928;2024-03-23T13:14:31;100114.28;;;9.92;56.76
80202;BME280;69521;54.454;9.928;2024-03-23T13:16:56;100129.78;;;8.41;62.99
80202;BME280;69521;54.454;9.928;2024-03-23T13:19:21;100141.94;;;7.47;69.65
80202;BME280;69521;54.454;9.928;2024-03-23T13:21:52;100140.03;;;7.19;67.34
80202;BME280;69521;54.454;9.928;2024-03-23T13:24:17;100153.81;;;7.14;70.63
80202;BME280;69521;54.454;9.928;2024-03-23T13:26:42;100144.19;;;7.02;69.70
80202;BME280;69521;54.454;9.928;2024-03-23T13:29:08;100141.34;;;7.93;71.42
80202;BME280;69521;54.454;9.928;2024-03-23T13:31:33;100133.38;;;7.53;65.18
80202;BME280;69521;54.454;9.928;2024-03-23T13:33:59;100137.56;;;7.37;67.00
80202;BME280;69521;54.454;9.928;2024-03-23T13:36:24;100126.81;;;8.06;69.04
80202;BME280;69521;54.454;9.928;2024-03-23T13:38:50;100123.25;;;10.00;61.85
80202;BME280;69521;54.454;9.928;2024-03-23T13:41:16;100128.31;;;10.57;61.45
80202;BME280;69521;54.454;9.928;2024-03-23T13:43:41;100113.88;;;9.86;62.27
80202;BME280;69521;54.454;9.928;2024-03-23T13:46:07;100113.72;;;9.70;66.04
80202;BME280;69521;54.454;9.928;2024-03-23T13:48:32;100118.63;;;9.30;62.45
80202;BME280;69521;54.454;9.928;2024-03-23T13:51:02;100119.97;;;8.79;63.94